Strona główna
METAR-TAF:

METAR-TAF

Lotnisko :

Port lotniczy Skellefteå

Skellefteå, Szwecja

Szerokość geograficzna: 64-38N, Długość geograficzna: 021-05E, wysokość: 49 m

Aktualna obserwacja pogody

Raport powstał 15 minut temu, godzina 22:50 UTC
Wiatr 3 kt od zachód
Temperatura -1°C
Wilgotność 86%
Ciśnienie 1030 hPa
Widzialność 10 km lub więcej

METAR: ESNS 182250Z AUTO 28003KT 9999 NCD M01/M03 Q1030

czas: 01:05 (23:05 UTC)

Prognoza

Raport powstał 8 godziny i 35 minut temu, godzina 14:30 UTC
Prognoza ważna od 18 godzina 15 UTC do 18 godzina 17 UTC
Wiatr 8 kt od wschód
Widzialność 10 km lub więcej
Brak chmur poniżej 1500 m i brak chmur cumulonimbus

TAF: ESNS 181430Z 1815/1817 09008KT CAVOK

Obserwacja i prognoza pogody dla ponad 4000 lotnisk (raport METAR i TAF).

Dostępne stacje oznaczono żółtymi i czerwonymi punktami na mapie.

Najedź kursorem aby zobaczyć nazwę stacji.

Kliknij aby zobaczyć obserwacje i prognozy pogody.

Aby zmienić mapę: kliknij na zielony przycisk z czarnym krzyżykiem, aby powiększyć; na zielony przycisk z myślnikiem, aby pomniejszyć; na zielone strzałki, aby przejść do map sąsiednich.


METAR-TAF: